createdAt,value
2022-07-26T00:05:45.964Z,0.98
2022-07-26T00:11:48.072Z,1.20
2022-07-26T00:17:49.837Z,1.00
2022-07-26T00:23:51.870Z,0.80
2022-07-26T00:29:53.582Z,1.20
2022-07-26T00:35:55.428Z,1.35
2022-07-26T00:41:57.170Z,1.00
2022-07-26T00:47:59.014Z,1.42
2022-07-26T00:54:00.878Z,1.23
2022-07-26T01:00:06.340Z,1.40
2022-07-26T01:06:08.770Z,1.48
2022-07-26T01:12:10.764Z,1.58
2022-07-26T01:18:12.583Z,1.30
2022-07-26T01:24:14.459Z,1.15
2022-07-26T01:30:16.295Z,2.20
2022-07-26T01:36:18.592Z,1.50
2022-07-26T01:42:21.121Z,1.30
2022-07-26T01:48:23.332Z,1.42
2022-07-26T01:54:25.069Z,1.45
2022-07-26T02:00:27.412Z,1.65
2022-07-26T02:06:29.194Z,1.38
2022-07-26T02:12:31.456Z,1.40
2022-07-26T02:18:33.317Z,1.50
2022-07-26T02:24:35.162Z,1.38
2022-07-26T02:30:36.996Z,2.13
2022-07-26T02:36:41.166Z,1.65
2022-07-26T02:42:42.944Z,1.33
2022-07-26T02:48:44.707Z,1.75
2022-07-26T02:54:46.545Z,1.85
2022-07-26T03:00:48.755Z,1.85
2022-07-26T03:06:50.621Z,1.70
2022-07-26T03:12:52.402Z,3.35
2022-07-26T03:18:54.444Z,2.08
2022-07-26T03:24:56.318Z,1.90
2022-07-26T03:30:58.447Z,1.90
2022-07-26T03:37:02.874Z,1.85
2022-07-26T03:43:04.721Z,1.80
2022-07-26T03:49:06.593Z,1.95
2022-07-26T03:55:27.789Z,2.13
2022-07-26T04:01:30.173Z,1.83
2022-07-26T04:07:31.970Z,2.00
2022-07-26T04:13:35.407Z,2.15
2022-07-26T04:19:39.767Z,2.10
2022-07-26T04:25:41.944Z,1.80
2022-07-26T04:31:43.712Z,1.80
2022-07-26T04:37:46.355Z,1.90
2022-07-26T04:43:48.078Z,1.98
2022-07-26T04:49:49.895Z,2.60
2022-07-26T04:55:51.708Z,2.10
2022-07-26T05:01:53.490Z,2.42
2022-07-26T05:08:00.518Z,2.35
2022-07-26T05:14:02.378Z,2.00
2022-07-26T05:20:04.751Z,2.45
2022-07-26T05:26:06.941Z,2.20
2022-07-26T05:32:09.047Z,2.47
2022-07-26T05:38:10.952Z,2.67
2022-07-26T05:44:12.699Z,2.97
2022-07-26T05:50:15.503Z,2.78
2022-07-26T05:56:17.253Z,2.50
2022-07-26T06:02:19.177Z,3.00
2022-07-26T06:08:21.672Z,3.42
2022-07-26T06:14:23.451Z,3.10
2022-07-26T06:20:25.260Z,3.10
2022-07-26T06:26:27.032Z,3.08
2022-07-26T06:32:28.753Z,4.10
2022-07-26T06:38:30.541Z,3.53
2022-07-26T06:44:32.359Z,3.97
2022-07-26T06:50:34.129Z,3.42
2022-07-26T06:56:35.838Z,3.95
2022-07-26T07:02:37.648Z,3.42
2022-07-26T07:08:39.619Z,4.30
2022-07-26T07:14:44.573Z,3.65
2022-07-26T07:20:46.386Z,3.03
2022-07-26T07:26:48.175Z,3.25
2022-07-26T07:32:49.986Z,4.18
2022-07-26T07:38:51.906Z,3.78
2022-07-26T07:44:53.684Z,3.50
2022-07-26T07:50:55.496Z,2.70
2022-07-26T07:56:57.410Z,2.95
2022-07-26T08:02:59.233Z,2.83
2022-07-26T08:09:01.370Z,2.88
2022-07-26T08:15:07.351Z,2.42
2022-07-26T08:27:16.135Z,2.22
2022-07-26T08:33:18.458Z,2.08
2022-07-26T08:39:20.200Z,0.60
2022-07-26T08:45:26.952Z,1.08
2022-07-26T08:51:28.724Z,1.13
2022-07-26T08:57:30.546Z,1.27
2022-07-26T09:03:32.755Z,1.00
2022-07-26T09:09:37.141Z,1.40
2022-07-26T09:15:39.037Z,1.10
2022-07-26T09:21:40.886Z,1.15
2022-07-26T09:27:42.632Z,1.30
2022-07-26T09:33:46.442Z,1.85
2022-07-26T09:39:59.155Z,1.10
2022-07-26T09:46:06.246Z,1.00
2022-07-26T09:52:20.269Z,0.90
2022-07-26T09:58:24.742Z,0.90
2022-07-26T10:04:29.427Z,0.80
2022-07-26T10:10:44.156Z,0.80
2022-07-26T10:16:46.019Z,0.38
2022-07-26T10:22:50.423Z,0.38
2022-07-26T10:28:52.362Z,0.40
2022-07-26T10:34:55.251Z,0.52
2022-07-26T10:41:08.349Z,0.50
2022-07-26T10:47:16.376Z,0.50
2022-07-26T10:53:23.985Z,0.70
2022-07-26T10:59:54.941Z,0.40
2022-07-26T11:05:56.038Z,0.90
2022-07-26T11:12:18.184Z,0.80
2022-07-26T11:18:27.756Z,0.85
2022-07-26T11:24:29.699Z,0.75
2022-07-26T11:30:31.654Z,0.75
2022-07-26T11:36:36.900Z,0.60
2022-07-26T11:42:38.690Z,0.25
2022-07-26T11:48:48.547Z,0.40
2022-07-26T11:54:52.212Z,0.70
2022-07-26T12:00:54.077Z,0.70
2022-07-26T12:06:57.830Z,0.52
2022-07-26T12:13:14.089Z,0.47
2022-07-26T12:19:19.314Z,0.50
2022-07-26T12:25:28.594Z,0.30
2022-07-26T12:31:32.966Z,0.40
2022-07-26T12:37:49.813Z,0.50
2022-07-26T12:43:51.797Z,0.90
2022-07-26T12:49:54.710Z,0.52
2022-07-26T12:55:56.550Z,0.40
2022-07-26T13:01:58.439Z,0.60
2022-07-26T13:08:00.331Z,0.43
2022-07-26T13:14:02.043Z,0.40
2022-07-26T13:20:04.674Z,0.30
2022-07-26T13:26:09.245Z,0.43
2022-07-26T13:32:11.961Z,0.70
2022-07-26T13:38:14.312Z,0.70
2022-07-26T13:44:16.574Z,0.50
2022-07-26T13:50:18.351Z,1.02
2022-07-26T13:56:20.491Z,0.90
2022-07-26T14:02:22.459Z,0.90
2022-07-26T14:08:24.382Z,0.60
2022-07-26T14:14:26.119Z,0.68
2022-07-26T14:20:28.156Z,0.75
2022-07-26T14:26:30.120Z,0.77
2022-07-26T14:32:31.946Z,0.80
2022-07-26T14:38:33.807Z,0.80
2022-07-26T14:44:35.549Z,0.70
2022-07-26T14:51:08.157Z,1.00
2022-07-26T14:57:08.969Z,0.93
2022-07-26T15:03:10.852Z,0.85
2022-07-26T15:09:12.621Z,0.98
2022-07-26T15:15:14.350Z,1.23
2022-07-26T15:21:17.245Z,0.85
2022-07-26T15:27:19.260Z,0.80
2022-07-26T15:33:21.232Z,0.90
2022-07-26T15:39:23.089Z,0.70
2022-07-26T15:45:25.390Z,1.10
2022-07-26T15:51:27.637Z,0.70
2022-07-26T15:57:29.603Z,0.82
2022-07-26T16:03:31.489Z,0.80
2022-07-26T16:09:33.285Z,0.90
2022-07-26T16:15:35.145Z,1.00
2022-07-26T16:21:38.038Z,0.80
2022-07-26T16:27:44.071Z,1.10
2022-07-26T16:33:47.263Z,1.10
2022-07-26T16:39:49.841Z,0.90
2022-07-26T16:45:51.715Z,1.00
2022-07-26T16:51:53.718Z,0.90
2022-07-26T16:57:55.530Z,1.20
2022-07-26T17:03:57.899Z,1.20
2022-07-26T17:09:59.830Z,1.50
2022-07-26T17:16:02.458Z,1.13
2022-07-26T17:22:04.778Z,1.33
2022-07-26T17:28:06.523Z,1.33
2022-07-26T17:34:08.416Z,1.42
2022-07-26T17:40:11.468Z,1.33
2022-07-26T17:46:13.745Z,1.30
2022-07-26T17:52:17.192Z,1.55
2022-07-26T17:58:18.960Z,1.70
2022-07-26T18:04:20.722Z,1.65
2022-07-26T18:10:22.680Z,1.50
2022-07-26T18:16:24.521Z,1.45
2022-07-26T18:22:27.275Z,1.30
2022-07-26T18:28:29.225Z,1.60
2022-07-26T18:34:31.027Z,1.27
2022-07-26T18:40:33.742Z,1.30
2022-07-26T18:46:35.590Z,1.30
2022-07-26T18:52:38.957Z,1.20
2022-07-26T18:58:40.720Z,1.30
2022-07-26T19:04:43.624Z,1.17
2022-07-26T19:10:46.416Z,1.23
2022-07-26T19:16:49.996Z,1.30
2022-07-26T19:22:52.295Z,1.02
2022-07-26T19:28:54.237Z,1.10
2022-07-26T19:34:56.679Z,1.02
2022-07-26T19:40:58.992Z,1.08
2022-07-26T19:47:01.167Z,1.45
2022-07-26T19:53:03.383Z,0.80
2022-07-26T19:59:05.096Z,1.05
2022-07-26T20:05:11.699Z,1.40
2022-07-26T20:11:13.523Z,0.95
2022-07-26T20:17:15.926Z,0.88
2022-07-26T20:23:18.163Z,1.45
2022-07-26T20:29:19.908Z,1.17
2022-07-26T20:35:21.824Z,1.05
2022-07-26T20:41:23.515Z,1.23
2022-07-26T20:47:25.305Z,0.80
2022-07-26T20:53:27.105Z,1.05
2022-07-26T20:59:28.906Z,1.10
2022-07-26T21:05:32.624Z,1.23
2022-07-26T21:11:34.678Z,1.25
2022-07-26T21:17:37.056Z,0.95
2022-07-26T21:23:38.820Z,0.90
2022-07-26T21:29:40.565Z,0.80
2022-07-26T21:35:42.617Z,1.02
2022-07-26T21:41:44.601Z,0.90
2022-07-26T21:47:46.365Z,1.05
2022-07-26T21:53:48.472Z,1.10
2022-07-26T21:59:50.929Z,0.80
2022-07-26T22:05:52.666Z,1.10
2022-07-26T22:11:55.854Z,1.00
2022-07-26T22:18:00.031Z,0.95
2022-07-26T22:30:04.249Z,1.02
2022-07-26T22:36:06.153Z,1.10
2022-07-26T22:42:16.139Z,0.90
2022-07-26T22:48:18.222Z,1.10
2022-07-26T22:54:19.923Z,0.90
2022-07-26T23:00:21.971Z,0.90
2022-07-26T23:06:32.057Z,0.93
2022-07-26T23:12:34.326Z,0.80
2022-07-26T23:18:36.285Z,0.77
2022-07-26T23:24:38.075Z,1.10
2022-07-26T23:36:43.906Z,0.82
2022-07-26T23:42:45.615Z,1.00
2022-07-26T23:48:47.564Z,0.65
2022-07-26T23:54:49.367Z,2.03
